createdAt,value
2018-11-26T00:00:48.159Z,43.83
2018-11-26T00:03:15.724Z,42.95
2018-11-26T00:05:43.330Z,40.23
2018-11-26T00:08:11.437Z,42.65
2018-11-26T00:10:44.286Z,42.17
2018-11-26T00:13:12.024Z,43.08
2018-11-26T00:15:39.358Z,45.20
2018-11-26T00:18:06.679Z,44.55
2018-11-26T00:20:34.052Z,45.05
2018-11-26T00:23:02.472Z,44.63
2018-11-26T00:25:30.294Z,48.08
2018-11-26T00:27:57.901Z,45.30
2018-11-26T00:30:25.217Z,47.98
2018-11-26T00:32:52.924Z,45.43
2018-11-26T00:35:20.519Z,50.73
2018-11-26T00:37:48.382Z,49.05
2018-11-26T00:40:15.957Z,45.67
2018-11-26T00:42:43.277Z,49.25
2018-11-26T00:45:11.392Z,49.25
2018-11-26T00:47:39.294Z,49.93
2018-11-26T00:50:07.663Z,48.48
2018-11-26T00:52:35.221Z,47.50
2018-11-26T00:55:02.822Z,51.00
2018-11-26T00:57:30.140Z,50.90
2018-11-26T00:59:57.736Z,52.93
2018-11-26T01:02:25.127Z,49.88
2018-11-26T01:04:53.121Z,49.42
2018-11-26T01:07:20.462Z,49.58
2018-11-26T01:09:48.079Z,47.83
2018-11-26T01:12:15.663Z,52.45
2018-11-26T01:14:43.048Z,48.38
2018-11-26T01:17:10.392Z,45.38
2018-11-26T01:19:37.733Z,53.42
2018-11-26T01:22:05.138Z,53.20
2018-11-26T01:24:32.811Z,51.25
2018-11-26T01:27:00.144Z,52.40
2018-11-26T01:29:28.311Z,50.70
2018-11-26T01:31:55.636Z,51.30
2018-11-26T01:34:23.256Z,51.00
2018-11-26T01:36:50.623Z,50.90
2018-11-26T01:39:18.185Z,52.78
2018-11-26T01:41:45.507Z,53.50
2018-11-26T01:44:13.084Z,46.83
2018-11-26T01:46:40.460Z,49.95
2018-11-26T01:49:08.271Z,48.58
2018-11-26T01:51:35.631Z,50.75
2018-11-26T01:54:03.629Z,45.95
2018-11-26T01:56:31.431Z,48.08
2018-11-26T01:58:58.986Z,49.65
2018-11-26T02:01:26.306Z,48.25
2018-11-26T02:03:53.687Z,46.35
2018-11-26T02:06:21.023Z,47.98
2018-11-26T02:08:48.385Z,46.92
2018-11-26T02:11:16.268Z,50.48
2018-11-26T02:13:43.828Z,51.37
2018-11-26T02:16:11.183Z,49.00
2018-11-26T02:18:38.879Z,50.50
2018-11-26T02:21:06.246Z,50.60
2018-11-26T02:23:33.558Z,51.15
2018-11-26T02:26:01.190Z,48.65
2018-11-26T02:28:28.784Z,51.25
2018-11-26T02:30:56.359Z,50.15
2018-11-26T02:33:23.707Z,54.80
2018-11-26T02:35:51.043Z,53.40
2018-11-26T02:38:18.394Z,51.10
2018-11-26T02:40:46.045Z,49.80
2018-11-26T02:43:14.013Z,56.73
2018-11-26T02:45:41.367Z,50.90
2018-11-26T02:48:08.689Z,53.02
2018-11-26T02:50:36.271Z,48.15
2018-11-26T02:53:03.689Z,48.52
2018-11-26T02:55:31.283Z,49.00
2018-11-26T02:57:59.179Z,52.33
2018-11-26T03:00:26.561Z,47.03
2018-11-26T03:02:54.361Z,48.55
2018-11-26T03:05:24.883Z,46.95
2018-11-26T03:07:52.543Z,50.95
2018-11-26T03:10:20.713Z,45.95
2018-11-26T03:12:48.319Z,44.73
2018-11-26T03:15:15.634Z,45.75
2018-11-26T03:17:42.997Z,45.58
2018-11-26T03:20:10.652Z,44.63
2018-11-26T03:22:38.261Z,45.67
2018-11-26T03:25:06.483Z,43.70
2018-11-26T03:27:33.845Z,48.23
2018-11-26T03:30:01.177Z,42.80
2018-11-26T03:32:28.732Z,45.67
2018-11-26T03:34:56.068Z,43.60
2018-11-26T03:37:23.935Z,42.80
2018-11-26T03:39:51.263Z,43.63
2018-11-26T03:42:18.830Z,44.05
2018-11-26T03:44:46.519Z,43.02
2018-11-26T03:47:13.834Z,41.23
2018-11-26T03:49:41.183Z,42.23
2018-11-26T03:52:09.029Z,43.00
2018-11-26T03:54:36.354Z,40.23
2018-11-26T03:57:03.921Z,41.18
2018-11-26T03:59:31.300Z,39.40
2018-11-26T04:01:58.895Z,42.60
2018-11-26T04:04:26.699Z,40.50
2018-11-26T04:06:54.085Z,39.95
2018-11-26T04:09:21.418Z,41.05
2018-11-26T04:11:49.482Z,37.67
2018-11-26T04:14:16.813Z,39.67
2018-11-26T04:16:44.464Z,37.55
2018-11-26T04:19:11.805Z,39.83
2018-11-26T04:21:39.214Z,40.58
2018-11-26T04:24:07.377Z,40.48
2018-11-26T04:26:34.934Z,39.33
2018-11-26T04:29:02.535Z,40.60
2018-11-26T04:31:30.051Z,38.40
2018-11-26T04:33:57.414Z,40.63
2018-11-26T04:36:24.790Z,38.85
2018-11-26T04:38:52.430Z,40.25
2018-11-26T04:41:20.250Z,39.48
2018-11-26T04:43:47.668Z,40.00
2018-11-26T04:46:15.135Z,41.48
2018-11-26T04:48:42.464Z,37.25
2018-11-26T04:51:10.038Z,40.20
2018-11-26T04:53:37.620Z,41.25
2018-11-26T04:56:05.237Z,40.78
2018-11-26T04:58:32.714Z,36.42
2018-11-26T05:01:00.303Z,42.33
2018-11-26T05:03:27.655Z,38.17
2018-11-26T05:05:54.992Z,39.35
2018-11-26T05:08:22.372Z,38.05
2018-11-26T05:10:49.700Z,36.00
2018-11-26T05:13:17.257Z,36.23
2018-11-26T05:15:44.621Z,36.83
2018-11-26T05:18:12.236Z,38.02
2018-11-26T05:20:39.588Z,42.95
2018-11-26T05:23:07.145Z,34.30
2018-11-26T05:25:34.515Z,38.13
2018-11-26T05:28:02.379Z,33.28
2018-11-26T05:30:30.040Z,39.90
2018-11-26T05:32:57.381Z,38.98
2018-11-26T05:35:24.707Z,37.15
2018-11-26T05:37:52.088Z,43.75
2018-11-26T05:40:19.421Z,34.05
2018-11-26T05:42:47.062Z,36.20
2018-11-26T05:45:14.947Z,34.00
2018-11-26T05:47:42.274Z,32.05
2018-11-26T05:50:10.545Z,34.53
2018-11-26T05:52:38.245Z,36.03
2018-11-26T05:55:05.991Z,33.75
2018-11-26T05:57:33.299Z,38.40
2018-11-26T06:00:00.629Z,38.40
2018-11-26T06:02:28.238Z,36.90
2018-11-26T06:04:55.778Z,33.98
2018-11-26T06:07:23.145Z,36.20
2018-11-26T06:09:50.603Z,33.70
2018-11-26T06:12:17.950Z,35.43
2018-11-26T06:14:45.569Z,34.63
2018-11-26T06:17:12.907Z,35.15
2018-11-26T06:19:40.284Z,32.30
2018-11-26T06:22:07.957Z,32.10
2018-11-26T06:24:35.504Z,32.13
2018-11-26T06:27:02.835Z,34.03
2018-11-26T06:29:30.374Z,37.75
2018-11-26T06:31:57.800Z,35.65
2018-11-26T06:34:25.661Z,34.75
2018-11-26T06:36:53.251Z,35.98
2018-11-26T06:39:20.968Z,30.77
2018-11-26T06:41:48.305Z,34.33
2018-11-26T06:44:15.655Z,34.92
2018-11-26T06:46:43.220Z,35.35
2018-11-26T06:49:11.002Z,34.90
2018-11-26T06:51:38.524Z,35.85
2018-11-26T06:54:06.350Z,34.75
2018-11-26T06:56:34.162Z,32.63
2018-11-26T06:59:01.500Z,33.10
2018-11-26T07:01:29.671Z,32.63
2018-11-26T07:03:57.038Z,33.83
2018-11-26T07:06:24.372Z,34.40
2018-11-26T07:08:52.027Z,31.90
2018-11-26T07:11:19.335Z,31.52
2018-11-26T07:13:46.727Z,35.35
2018-11-26T07:16:14.292Z,32.17
2018-11-26T07:18:41.863Z,27.13
2018-11-26T07:21:09.220Z,30.95
2018-11-26T07:23:37.046Z,28.67
2018-11-26T07:26:04.616Z,29.40
2018-11-26T07:28:32.161Z,28.10
2018-11-26T07:30:59.519Z,29.30
2018-11-26T07:33:27.353Z,26.17
2018-11-26T07:35:56.052Z,29.87
2018-11-26T07:38:23.619Z,31.60
2018-11-26T07:40:50.987Z,30.48
2018-11-26T07:43:18.342Z,31.37
2018-11-26T07:45:45.888Z,31.62
2018-11-26T07:48:13.290Z,30.30
2018-11-26T07:50:41.150Z,33.50
2018-11-26T07:53:09.217Z,29.98
2018-11-26T07:55:36.912Z,31.62
2018-11-26T07:58:04.480Z,30.95
2018-11-26T08:00:31.797Z,31.07
2018-11-26T08:02:59.175Z,27.22
2018-11-26T08:05:26.512Z,25.27
2018-11-26T08:07:53.865Z,26.33
2018-11-26T08:10:21.688Z,21.35
2018-11-26T08:12:49.543Z,27.40
2018-11-26T08:15:22.656Z,23.75
2018-11-26T08:17:49.918Z,26.70
2018-11-26T08:20:17.664Z,27.52
2018-11-26T08:22:45.250Z,26.95
2018-11-26T08:25:13.118Z,23.92
2018-11-26T08:27:40.947Z,25.82
2018-11-26T08:30:09.805Z,25.35
2018-11-26T08:32:39.577Z,25.65
2018-11-26T08:35:07.162Z,26.05
2018-11-26T08:37:35.396Z,23.80
2018-11-26T08:40:08.170Z,24.60
2018-11-26T08:43:44.823Z,22.30
2018-11-26T08:46:13.194Z,25.72
2018-11-26T08:48:46.495Z,24.45
2018-11-26T08:51:15.041Z,25.92
2018-11-26T08:53:42.454Z,26.42
2018-11-26T08:56:20.757Z,24.72
2018-11-26T08:58:48.210Z,24.92
2018-11-26T09:01:19.579Z,23.25
2018-11-26T09:03:55.705Z,25.52
2018-11-26T09:06:23.166Z,22.22
2018-11-26T09:08:50.547Z,24.90
2018-11-26T09:11:18.688Z,21.70
2018-11-26T09:13:46.568Z,22.77
2018-11-26T09:16:14.155Z,22.93
2018-11-26T09:18:41.748Z,21.37
2018-11-26T09:21:09.303Z,20.80
2018-11-26T09:23:36.896Z,24.55
2018-11-26T09:26:04.257Z,21.45
2018-11-26T09:28:32.762Z,22.13
2018-11-26T09:31:00.253Z,21.42
2018-11-26T09:33:28.176Z,22.45
2018-11-26T09:35:56.232Z,21.68
2018-11-26T09:38:23.659Z,22.25
2018-11-26T09:40:51.063Z,23.00
2018-11-26T09:43:18.414Z,24.02
2018-11-26T09:45:45.788Z,22.05
2018-11-26T09:48:13.200Z,24.63
2018-11-26T09:50:40.536Z,22.05
2018-11-26T09:53:08.011Z,24.25
2018-11-26T09:55:35.485Z,23.35
2018-11-26T09:58:03.089Z,26.95
2018-11-26T10:00:30.834Z,23.70
2018-11-26T10:02:58.816Z,23.98
2018-11-26T10:05:26.680Z,25.10
2018-11-26T10:07:54.359Z,27.07
2018-11-26T10:10:23.297Z,27.77
2018-11-26T10:12:50.787Z,25.50
2018-11-26T10:15:20.877Z,24.98
2018-11-26T10:17:48.474Z,26.12
2018-11-26T10:20:15.903Z,26.90
2018-11-26T10:22:43.657Z,24.05
2018-11-26T10:25:11.667Z,25.37
2018-11-26T10:27:39.300Z,23.73
2018-11-26T10:30:10.415Z,25.23
2018-11-26T10:32:38.308Z,23.95
2018-11-26T10:35:06.274Z,26.82
2018-11-26T10:37:33.860Z,23.92
2018-11-26T10:40:01.309Z,25.23
2018-11-26T10:42:28.649Z,23.60
2018-11-26T10:44:56.012Z,23.92
2018-11-26T10:47:23.400Z,25.05
2018-11-26T10:49:50.732Z,24.77
2018-11-26T10:52:18.388Z,25.80
2018-11-26T10:54:45.981Z,26.77
2018-11-26T10:57:13.383Z,26.42
2018-11-26T10:59:40.702Z,26.02
2018-11-26T11:02:13.454Z,25.37
2018-11-26T11:04:47.620Z,26.42
2018-11-26T11:07:08.891Z,26.82
2018-11-26T11:09:36.455Z,27.82
2018-11-26T11:12:03.849Z,26.25
2018-11-26T11:14:31.340Z,25.65
2018-11-26T11:16:58.801Z,24.65
2018-11-26T11:19:27.144Z,26.20
2018-11-26T11:21:54.605Z,25.80
2018-11-26T11:24:22.040Z,23.52
2018-11-26T11:26:49.455Z,25.92
2018-11-26T11:29:18.274Z,25.48
2018-11-26T11:31:48.510Z,25.80
2018-11-26T11:34:17.229Z,26.85
2018-11-26T11:36:46.283Z,25.52
2018-11-26T11:39:16.026Z,25.20
2018-11-26T11:41:43.864Z,25.62
2018-11-26T11:44:13.427Z,28.25
2018-11-26T11:46:42.505Z,28.90
2018-11-26T11:49:12.499Z,26.15
2018-11-26T11:51:40.741Z,26.57
2018-11-26T11:54:09.610Z,27.13
2018-11-26T11:56:38.430Z,26.00
2018-11-26T11:59:07.028Z,26.00
2018-11-26T12:01:37.357Z,28.23
2018-11-26T12:04:05.685Z,28.40
2018-11-26T12:06:33.163Z,29.00
2018-11-26T12:09:00.505Z,28.85
2018-11-26T12:11:28.079Z,28.62
2018-11-26T12:13:55.968Z,26.17
2018-11-26T12:16:23.316Z,30.48
2018-11-26T12:18:50.727Z,27.35
2018-11-26T12:21:18.639Z,28.90
2018-11-26T12:23:45.997Z,28.38
2018-11-26T12:26:13.352Z,28.20
2018-11-26T12:28:40.663Z,29.52
2018-11-26T12:31:08.009Z,28.83
2018-11-26T12:33:35.372Z,29.65
2018-11-26T12:36:02.724Z,28.55
2018-11-26T12:38:30.059Z,29.67
2018-11-26T12:40:57.672Z,29.05
2018-11-26T12:43:25.204Z,28.42
2018-11-26T12:45:52.526Z,28.05
2018-11-26T12:48:19.868Z,26.40
2018-11-26T12:50:48.112Z,27.37
2018-11-26T12:53:15.711Z,29.18
2018-11-26T12:55:43.031Z,29.80
2018-11-26T12:58:10.639Z,29.40
2018-11-26T13:00:38.126Z,25.80
2018-11-26T13:03:08.513Z,25.52
2018-11-26T13:05:35.967Z,28.57
2018-11-26T13:08:03.327Z,27.90
2018-11-26T13:10:30.666Z,27.25
2018-11-26T13:12:58.262Z,29.90
2018-11-26T13:15:26.915Z,24.90
2018-11-26T13:17:54.251Z,28.30
2018-11-26T13:20:22.716Z,26.17
2018-11-26T13:22:50.400Z,26.15
2018-11-26T13:25:18.330Z,26.02
2018-11-26T13:27:46.309Z,24.82
2018-11-26T13:30:14.796Z,27.17
2018-11-26T13:32:42.830Z,25.62
2018-11-26T13:35:10.863Z,23.80
2018-11-26T13:37:38.783Z,26.02
2018-11-26T13:40:08.410Z,25.00
2018-11-26T13:42:36.015Z,25.45
2018-11-26T13:45:03.682Z,31.37
2018-11-26T13:47:33.929Z,26.87
2018-11-26T13:50:01.838Z,27.80
2018-11-26T13:52:31.008Z,24.55
2018-11-26T13:54:58.499Z,24.12
2018-11-26T13:57:26.158Z,26.48
2018-11-26T13:59:54.937Z,22.90
2018-11-26T14:02:22.247Z,27.50
2018-11-26T14:04:49.688Z,26.10
2018-11-26T14:07:17.331Z,23.12
2018-11-26T14:09:45.041Z,26.00
2018-11-26T14:12:12.742Z,25.23
2018-11-26T14:14:40.137Z,23.30
2018-11-26T14:17:07.988Z,23.95
2018-11-26T14:19:35.286Z,23.62
2018-11-26T14:22:02.716Z,24.85
2018-11-26T14:24:30.332Z,23.50
2018-11-26T14:26:57.856Z,24.00
2018-11-26T14:29:25.770Z,22.48
2018-11-26T14:31:53.445Z,23.42
2018-11-26T14:34:20.753Z,24.57
2018-11-26T14:36:48.371Z,24.15
2018-11-26T14:39:15.764Z,24.67
2018-11-26T14:41:43.256Z,22.27
2018-11-26T14:44:10.800Z,25.48
2018-11-26T14:46:38.286Z,22.20
2018-11-26T14:49:05.717Z,21.82
2018-11-26T14:51:33.268Z,25.20
2018-11-26T14:54:00.783Z,22.87
2018-11-26T14:56:28.091Z,23.52
2018-11-26T14:58:55.435Z,23.57
2018-11-26T15:01:22.879Z,24.55
2018-11-26T15:03:50.385Z,21.85
2018-11-26T15:06:17.703Z,21.07
2018-11-26T15:08:45.043Z,25.27
2018-11-26T15:11:13.113Z,24.05
2018-11-26T15:13:40.529Z,22.17
2018-11-26T15:16:07.957Z,22.65
2018-11-26T15:18:35.535Z,21.15
2018-11-26T15:21:03.125Z,20.23
2018-11-26T15:23:30.439Z,21.33
2018-11-26T15:25:57.974Z,20.20
2018-11-26T15:31:09.578Z,21.37
2018-11-26T15:33:36.970Z,21.20
2018-11-26T15:36:04.479Z,21.85
2018-11-26T15:38:31.860Z,20.85
2018-11-26T15:40:59.439Z,22.00
2018-11-26T15:43:27.087Z,21.73
2018-11-26T15:45:54.485Z,20.08
2018-11-26T15:48:23.234Z,21.20
2018-11-26T15:50:53.033Z,19.70
2018-11-26T15:53:22.505Z,20.48
2018-11-26T15:55:53.442Z,20.77
2018-11-26T15:58:23.766Z,20.70
2018-11-26T16:00:51.681Z,20.55
2018-11-26T16:03:20.985Z,19.67
2018-11-26T16:05:51.359Z,18.70
2018-11-26T16:08:19.807Z,19.87
2018-11-26T16:10:49.397Z,18.95
2018-11-26T16:13:19.447Z,19.05
2018-11-26T16:15:48.682Z,18.87
2018-11-26T16:18:20.504Z,20.05
2018-11-26T16:20:48.394Z,19.05
2018-11-26T16:23:18.542Z,21.87
2018-11-26T16:25:51.254Z,19.92
2018-11-26T16:28:25.430Z,17.77
2018-11-26T16:30:55.701Z,19.45
2018-11-26T16:33:26.110Z,19.25
2018-11-26T16:35:56.734Z,19.48
2018-11-26T16:38:27.610Z,22.22
2018-11-26T16:40:57.984Z,19.75
2018-11-26T16:43:27.520Z,20.20
2018-11-26T16:45:58.568Z,20.77
2018-11-26T16:48:28.407Z,32.40
2018-11-26T16:50:56.757Z,20.88
2018-11-26T16:53:25.205Z,24.07
2018-11-26T16:55:55.815Z,22.05
2018-11-26T16:58:25.415Z,29.42
2018-11-26T17:00:56.266Z,19.42
2018-11-26T17:03:24.091Z,22.50
2018-11-26T17:05:57.941Z,19.27
2018-11-26T17:08:25.794Z,21.37
2018-11-26T17:10:53.104Z,19.52
2018-11-26T17:13:20.414Z,19.23
2018-11-26T17:15:47.793Z,18.90
2018-11-26T17:18:17.612Z,20.92
2018-11-26T17:20:45.689Z,17.32
2018-11-26T17:23:14.087Z,18.60
2018-11-26T17:25:41.807Z,19.07
2018-11-26T17:28:09.251Z,20.25
2018-11-26T17:30:37.182Z,20.23
2018-11-26T17:33:05.669Z,20.50
2018-11-26T17:35:34.155Z,20.57
2018-11-26T17:38:04.137Z,21.27
2018-11-26T17:40:34.335Z,19.75
2018-11-26T17:43:04.975Z,18.95
2018-11-26T17:45:32.462Z,21.42
2018-11-26T17:48:00.723Z,21.20
2018-11-26T17:50:36.958Z,22.27
2018-11-26T17:53:07.149Z,20.43
2018-11-26T17:55:41.579Z,23.98
2018-11-26T17:58:11.964Z,20.70
2018-11-26T18:00:39.758Z,21.50
2018-11-26T18:03:08.112Z,21.35
2018-11-26T18:05:36.214Z,20.10
2018-11-26T18:08:06.589Z,21.95
2018-11-26T18:10:34.988Z,19.45
2018-11-26T18:13:04.688Z,21.75
2018-11-26T18:15:33.863Z,19.67
2018-11-26T18:18:03.712Z,20.45
2018-11-26T18:20:34.056Z,22.67
2018-11-26T18:23:03.351Z,21.97
2018-11-26T18:25:33.513Z,22.05
2018-11-26T18:28:02.062Z,19.30
2018-11-26T18:30:36.712Z,21.85
2018-11-26T18:33:05.587Z,18.92
2018-11-26T18:35:33.613Z,22.55
2018-11-26T18:38:03.660Z,20.05
2018-11-26T18:40:31.592Z,20.65
2018-11-26T18:43:00.139Z,20.68
2018-11-26T18:45:27.763Z,19.73
2018-11-26T18:47:56.768Z,19.82
2018-11-26T18:50:24.292Z,21.57
2018-11-26T18:52:51.653Z,21.40
2018-11-26T18:55:19.228Z,20.50
2018-11-26T18:57:47.236Z,19.32
2018-11-26T19:00:29.393Z,19.80
2018-11-26T19:02:57.173Z,21.95
2018-11-26T19:05:25.208Z,21.12
2018-11-26T19:07:52.717Z,20.70
2018-11-26T19:10:20.891Z,21.20
2018-11-26T19:12:49.458Z,20.10
2018-11-26T19:15:19.740Z,21.85
2018-11-26T19:17:47.553Z,18.50
2018-11-26T19:20:14.948Z,18.27
2018-11-26T19:22:42.344Z,16.30
2018-11-26T19:25:11.358Z,18.52
2018-11-26T19:27:38.914Z,17.20
2018-11-26T19:30:08.522Z,16.60
2018-11-26T19:32:35.959Z,17.60
2018-11-26T19:35:03.420Z,18.60
2018-11-26T19:37:31.342Z,18.75
2018-11-26T19:39:59.055Z,16.73
2018-11-26T19:42:26.364Z,16.67
2018-11-26T19:44:53.893Z,16.65
2018-11-26T19:47:21.252Z,16.00
2018-11-26T19:49:48.719Z,15.50
2018-11-26T19:52:16.249Z,17.52
2018-11-26T19:54:44.666Z,16.67
2018-11-26T19:57:12.153Z,17.70
2018-11-26T19:59:40.448Z,19.92
2018-11-26T20:02:08.978Z,15.53
2018-11-26T20:04:40.106Z,14.65
2018-11-26T20:07:08.723Z,15.83
2018-11-26T20:09:38.001Z,15.70
2018-11-26T20:12:07.224Z,15.68
2018-11-26T20:14:35.193Z,16.65
2018-11-26T20:17:03.699Z,14.85
2018-11-26T20:19:31.898Z,15.28
2018-11-26T20:21:59.423Z,14.90
2018-11-26T20:24:28.084Z,15.80
2018-11-26T20:26:56.091Z,17.05
2018-11-26T20:29:23.877Z,17.48
2018-11-26T20:31:51.526Z,15.78
2018-11-26T20:34:19.813Z,15.32
2018-11-26T20:36:47.715Z,13.25
2018-11-26T20:39:15.084Z,16.23
2018-11-26T20:41:42.710Z,15.72
2018-11-26T20:44:13.340Z,15.63
2018-11-26T20:46:43.258Z,17.45
2018-11-26T20:49:10.640Z,16.48
2018-11-26T20:51:38.752Z,15.10
2018-11-26T20:54:06.409Z,16.90
2018-11-26T20:56:34.208Z,18.12
2018-11-26T20:59:02.063Z,18.27
2018-11-26T21:01:29.794Z,18.37
2018-11-26T21:03:57.230Z,18.20
2018-11-26T21:06:26.538Z,16.25
2018-11-26T21:08:54.870Z,16.73
2018-11-26T21:11:23.566Z,18.67
2018-11-26T21:13:52.355Z,17.90
2018-11-26T21:16:20.885Z,16.70
2018-11-26T21:18:50.807Z,17.32
2018-11-26T21:21:18.553Z,17.30
2018-11-26T21:23:45.849Z,17.75
2018-11-26T21:26:13.402Z,17.87
2018-11-26T21:28:40.530Z,16.77
2018-11-26T21:31:08.303Z,20.70
2018-11-26T21:33:35.625Z,25.50
2018-11-26T21:36:02.997Z,28.95
2018-11-26T21:38:30.474Z,18.80
2018-11-26T21:40:58.122Z,23.00
2018-11-26T21:43:25.480Z,20.17
2018-11-26T21:45:53.979Z,18.60
2018-11-26T21:48:21.333Z,22.95
2018-11-26T21:50:48.656Z,22.77
2018-11-26T21:53:16.034Z,20.12
2018-11-26T21:55:43.353Z,17.65
2018-11-26T21:58:11.142Z,31.62
2018-11-26T22:00:39.346Z,18.17
2018-11-26T22:03:07.945Z,16.85
2018-11-26T22:05:35.588Z,15.80
2018-11-26T22:08:02.898Z,22.50
2018-11-26T22:10:30.210Z,17.07
2018-11-26T22:12:57.545Z,15.23
2018-11-26T22:15:24.884Z,14.03
2018-11-26T22:17:52.463Z,14.03
2018-11-26T22:20:20.584Z,13.80
2018-11-26T22:22:47.915Z,12.75
2018-11-26T22:25:15.297Z,13.38
2018-11-26T22:27:42.853Z,12.13
2018-11-26T22:30:11.438Z,14.53
2018-11-26T22:32:38.766Z,12.82
2018-11-26T22:35:06.262Z,12.18
2018-11-26T22:37:33.840Z,12.30
2018-11-26T22:40:01.547Z,11.85
2018-11-26T22:42:28.932Z,11.45
2018-11-26T22:44:56.225Z,13.03
2018-11-26T22:47:23.570Z,12.33
2018-11-26T22:49:50.868Z,11.60
2018-11-26T22:52:18.174Z,12.33
2018-11-26T22:54:45.501Z,13.62
2018-11-26T22:57:13.051Z,13.08
2018-11-26T22:59:40.726Z,11.80
2018-11-26T23:02:08.023Z,10.95
2018-11-26T23:04:35.324Z,12.13
2018-11-26T23:07:02.640Z,12.45
2018-11-26T23:09:30.007Z,11.90
2018-11-26T23:11:57.341Z,12.88
2018-11-26T23:14:25.112Z,11.85
2018-11-26T23:16:52.686Z,13.65
2018-11-26T23:19:20.247Z,14.20
2018-11-26T23:21:47.793Z,12.23
2018-11-26T23:24:15.116Z,13.13
2018-11-26T23:26:42.700Z,11.63
2018-11-26T23:29:10.023Z,12.63
2018-11-26T23:31:37.337Z,13.18
2018-11-26T23:34:04.709Z,13.75
2018-11-26T23:36:32.280Z,15.40
2018-11-26T23:38:59.884Z,15.50
2018-11-26T23:41:27.941Z,17.05
2018-11-26T23:43:55.272Z,16.75
2018-11-26T23:46:22.602Z,16.93
2018-11-26T23:48:49.906Z,17.70
2018-11-26T23:51:17.242Z,18.82
2018-11-26T23:53:44.574Z,17.30
2018-11-26T23:56:11.916Z,18.85
2018-11-26T23:58:39.700Z,17.77
